Time,TemperatureF,DewpointF,PressureIn,WindDirection,WindDirectionDegrees,WindSpeedMPH,WindSpeedGustMPH,Humidity,HourlyPrecipIn,Conditions,Clouds,dailyrainin,SolarRadiationWatts/m^2,SoftwareType,DateUTC
2013-03-11 00:22:00,29.0,28.0,-100.00,SSW,198,0.0,2.0,96,0.00,,,0.03,0.000000,,2013-03-11 08:22:00,
2013-03-11 00:32:00,29.0,28.0,-100.00,SSW,198,0.0,2.0,96,0.00,,,0.03,0.000000,,2013-03-11 08:32:00,
2013-03-11 00:42:00,29.0,28.0,-100.00,SSW,198,0.0,2.0,96,0.00,,,0.03,0.000000,,2013-03-11 08:42:00,
2013-03-11 00:52:00,29.0,28.0,-100.00,SSW,198,0.0,2.0,96,0.00,,,0.03,0.000000,,2013-03-11 08:52:00,
2013-03-11 01:22:00,29.0,28.0,-100.00,ENE,67,0.0,1.0,95,0.00,,,0.03,0.000000,,2013-03-11 09:22:00,
2013-03-11 01:32:00,29.0,28.0,-100.00,ENE,67,0.0,1.0,95,0.00,,,0.03,0.000000,,2013-03-11 09:32:00,
2013-03-11 01:42:00,29.0,28.0,-100.00,ENE,67,0.0,1.0,95,0.00,,,0.03,0.000000,,2013-03-11 09:42:00,
2013-03-11 01:52:00,29.0,28.0,-100.00,ENE,67,0.0,1.0,95,0.00,,,0.03,0.000000,,2013-03-11 09:52:00,
2013-03-11 02:22:00,27.0,26.0,-100.00,ENE,64,0.0,1.0,97,0.00,,,0.03,0.000000,,2013-03-11 10:22:00,
2013-03-11 02:32:00,27.0,26.0,-100.00,ENE,64,0.0,1.0,97,0.00,,,0.03,0.000000,,2013-03-11 10:32:00,
2013-03-11 02:42:00,27.0,26.0,-100.00,ENE,64,0.0,1.0,97,0.00,,,0.03,0.000000,,2013-03-11 10:42:00,
2013-03-11 02:52:00,27.0,26.0,-100.00,ENE,64,0.0,1.0,97,0.00,,,0.03,0.000000,,2013-03-11 10:52:00,
2013-03-11 03:22:00,27.0,27.0,-100.00,South,186,0.0,1.0,100,0.00,,,-99.99,0.000000,,2013-03-11 11:22:00,
2013-03-11 03:32:00,27.0,27.0,-100.00,South,186,0.0,1.0,100,0.00,,,-99.99,0.000000,,2013-03-11 11:32:00,
2013-03-11 03:42:00,27.0,27.0,-100.00,South,186,0.0,1.0,100,0.00,,,-99.99,0.000000,,2013-03-11 11:42:00,
2013-03-11 03:52:00,27.0,27.0,-100.00,South,186,0.0,1.0,100,0.00,,,-99.99,0.000000,,2013-03-11 11:52:00,
2013-03-11 04:22:00,28.0,26.0,-100.00,ENE,68,0.0,4.0,91,0.00,,,-99.99,0.000000,,2013-03-11 12:22:00,
2013-03-11 04:32:00,28.0,26.0,-100.00,ENE,68,0.0,4.0,91,0.00,,,-99.99,0.000000,,2013-03-11 12:32:00,
2013-03-11 04:42:00,28.0,26.0,-100.00,ENE,68,0.0,4.0,91,0.00,,,-99.99,0.000000,,2013-03-11 12:42:00,
2013-03-11 04:52:00,28.0,26.0,-100.00,ENE,68,0.0,4.0,91,0.00,,,-99.99,0.000000,,2013-03-11 12:52:00,
2013-03-11 05:22:00,29.0,26.0,-100.00,ESE,102,0.0,4.0,90,0.00,,,-99.99,0.000000,,2013-03-11 13:22:00,
2013-03-11 05:32:00,29.0,26.0,-100.00,ESE,102,0.0,4.0,90,0.00,,,-99.99,0.000000,,2013-03-11 13:32:00,
2013-03-11 05:42:00,29.0,26.0,-100.00,ESE,102,0.0,4.0,90,0.00,,,-99.99,0.000000,,2013-03-11 13:42:00,
2013-03-11 05:52:00,29.0,26.0,-100.00,ESE,102,0.0,4.0,90,0.00,,,-99.99,0.000000,,2013-03-11 13:52:00,
2013-03-11 06:22:00,27.0,24.0,-100.00,North,10,0.0,3.0,87,0.00,,,0.03,0.000000,,2013-03-11 14:22:00,
2013-03-11 06:32:00,27.0,24.0,-100.00,North,10,0.0,3.0,87,0.00,,,0.03,0.000000,,2013-03-11 14:32:00,
2013-03-11 06:42:00,27.0,24.0,-100.00,North,10,0.0,3.0,87,0.00,,,0.03,0.000000,,2013-03-11 14:42:00,
2013-03-11 06:52:00,27.0,24.0,-100.00,North,10,0.0,3.0,87,0.00,,,0.03,0.000000,,2013-03-11 14:52:00,
2013-03-11 07:22:00,27.0,25.0,-100.00,North,357,0.0,1.0,91,0.00,,,0.03,0.000000,,2013-03-11 15:22:00,
2013-03-11 07:32:00,27.0,25.0,-100.00,North,357,0.0,1.0,91,0.00,,,0.03,0.000000,,2013-03-11 15:32:00,
2013-03-11 07:42:00,27.0,25.0,-100.00,North,357,0.0,1.0,91,0.00,,,0.03,0.000000,,2013-03-11 15:42:00,
2013-03-11 07:52:00,27.0,25.0,-100.00,North,357,0.0,1.0,91,0.00,,,0.03,0.000000,,2013-03-11 15:52:00,
2013-03-11 08:22:00,26.0,23.0,-100.00,NNE,26,1.0,3.0,89,0.00,,,0.03,0.000000,,2013-03-11 16:22:00,
2013-03-11 08:32:00,26.0,23.0,-100.00,NNE,26,1.0,3.0,89,0.00,,,0.03,0.000000,,2013-03-11 16:32:00,
2013-03-11 08:42:00,26.0,23.0,-100.00,NNE,26,1.0,3.0,89,0.00,,,0.03,0.000000,,2013-03-11 16:42:00,
2013-03-11 08:52:00,26.0,23.0,-100.00,NNE,26,1.0,3.0,89,0.00,,,0.03,0.000000,,2013-03-11 16:52:00,
2013-03-11 09:24:00,27.0,24.0,-100.00,NNE,27,1.0,4.0,87,0.00,,,-99.99,5.000000,,2013-03-11 17:24:00,
2013-03-11 09:34:00,27.0,24.0,-100.00,NNE,27,1.0,4.0,87,0.00,,,-99.99,5.000000,,2013-03-11 17:34:00,
2013-03-11 09:42:00,27.0,24.0,-100.00,NNE,27,1.0,4.0,87,0.00,,,-99.99,5.000000,,2013-03-11 17:42:00,
2013-03-11 09:52:00,27.0,24.0,-100.00,NNE,27,1.0,4.0,87,0.00,,,-99.99,5.000000,,2013-03-11 17:52:00,
2013-03-11 10:22:00,28.0,24.0,-100.00,NE,54,0.0,2.0,86,0.00,,,0.03,27.000000,,2013-03-11 18:22:00,
2013-03-11 10:32:00,28.0,24.0,-100.00,NE,54,0.0,2.0,86,0.00,,,0.03,27.000000,,2013-03-11 18:32:00,
2013-03-11 10:42:00,28.0,24.0,-100.00,NE,54,0.0,2.0,86,0.00,,,0.03,27.000000,,2013-03-11 18:42:00,
2013-03-11 10:52:00,28.0,24.0,-100.00,NE,54,0.0,2.0,86,0.00,,,0.03,27.000000,,2013-03-11 18:52:00,
2013-03-11 11:22:00,30.0,24.0,-100.00,NNE,25,1.0,3.0,78,0.00,,,0.03,55.000000,,2013-03-11 19:22:00,
2013-03-11 11:32:00,30.0,24.0,-100.00,NNE,25,1.0,3.0,78,0.00,,,0.03,55.000000,,2013-03-11 19:32:00,
2013-03-11 11:42:00,30.0,24.0,-100.00,NNE,25,1.0,3.0,78,0.00,,,0.03,55.000000,,2013-03-11 19:42:00,
2013-03-11 11:52:00,30.0,24.0,-100.00,NNE,25,1.0,3.0,78,0.00,,,0.03,55.000000,,2013-03-11 19:52:00,
2013-03-11 12:22:00,33.0,23.0,-100.00,NNE,14,1.0,4.0,66,0.00,,,0.03,145.000000,,2013-03-11 20:22:00,
2013-03-11 12:32:00,33.0,23.0,-100.00,NNE,14,1.0,4.0,66,0.00,,,0.03,145.000000,,2013-03-11 20:32:00,
2013-03-11 12:43:00,33.0,23.0,-100.00,NNE,14,1.0,4.0,66,0.00,,,0.03,145.000000,,2013-03-11 20:43:00,
2013-03-11 12:52:00,33.0,23.0,-100.00,NNE,14,1.0,4.0,66,0.00,,,0.03,145.000000,,2013-03-11 20:52:00,
2013-03-11 13:22:00,34.0,22.0,-100.00,NNE,28,1.0,6.0,61,0.00,,,0.03,131.000000,,2013-03-11 21:22:00,
2013-03-11 13:32:00,34.0,22.0,-100.00,NNE,28,1.0,6.0,61,0.00,,,0.03,131.000000,,2013-03-11 21:32:00,
2013-03-11 13:43:00,34.0,22.0,-100.00,NNE,28,1.0,6.0,61,0.00,,,0.03,131.000000,,2013-03-11 21:43:00,
2013-03-11 13:52:00,34.0,22.0,-100.00,NNE,28,1.0,6.0,61,0.00,,,0.03,131.000000,,2013-03-11 21:52:00,
2013-03-11 14:22:00,34.0,21.0,-100.00,SW,234,2.0,9.0,59,0.00,,,0.03,145.000000,,2013-03-11 22:22:00,
2013-03-11 14:32:00,34.0,21.0,-100.00,SW,234,2.0,9.0,59,0.00,,,0.03,145.000000,,2013-03-11 22:32:00,
2013-03-11 14:43:00,34.0,21.0,-100.00,SW,234,2.0,9.0,59,0.00,,,0.03,145.000000,,2013-03-11 22:43:00,
2013-03-11 14:52:00,34.0,21.0,-100.00,SW,234,2.0,9.0,59,0.00,,,0.03,145.000000,,2013-03-11 22:52:00,
2013-03-11 15:22:00,36.0,23.0,-100.00,West,280,2.0,10.0,58,0.00,,,0.02,193.000000,,2013-03-11 23:22:00,
2013-03-11 15:32:00,36.0,23.0,-100.00,West,280,2.0,10.0,58,0.00,,,0.02,193.000000,,2013-03-11 23:32:00,
2013-03-11 15:43:00,36.0,23.0,-100.00,West,280,2.0,10.0,58,0.00,,,0.02,193.000000,,2013-03-11 23:43:00,
2013-03-11 15:52:00,36.0,23.0,-100.00,West,280,2.0,10.0,58,0.00,,,0.02,193.000000,,2013-03-11 23:52:00,
2013-03-11 16:22:00,36.0,21.0,-100.00,West,261,3.0,8.0,55,0.00,,,0.01,253.000000,,2013-03-12 00:22:00,
2013-03-11 16:32:00,36.0,21.0,-100.00,West,261,3.0,8.0,55,0.00,,,0.01,253.000000,,2013-03-12 00:32:00,
2013-03-11 16:42:00,36.0,21.0,-100.00,West,261,3.0,8.0,55,0.00,,,0.01,253.000000,,2013-03-12 00:42:00,
2013-03-11 16:52:00,36.0,21.0,-100.00,West,261,3.0,8.0,55,0.00,,,0.01,253.000000,,2013-03-12 00:52:00,
2013-03-11 17:22:00,37.0,21.0,-100.00,West,272,3.0,9.0,53,0.00,,,0.01,181.000000,,2013-03-12 01:22:00,
2013-03-11 17:32:00,37.0,21.0,-100.00,West,272,3.0,9.0,53,0.00,,,0.01,181.000000,,2013-03-12 01:32:00,
2013-03-11 17:42:00,37.0,21.0,-100.00,West,272,3.0,9.0,53,0.00,,,0.01,181.000000,,2013-03-12 01:42:00,
2013-03-11 17:52:00,37.0,21.0,-100.00,West,272,3.0,9.0,53,0.00,,,0.01,181.000000,,2013-03-12 01:52:00,
2013-03-11 18:22:00,36.0,20.0,-100.00,West,266,2.0,7.0,52,0.00,,,0.00,203.000000,,2013-03-12 02:22:00,
2013-03-11 18:32:00,36.0,20.0,-100.00,West,266,2.0,7.0,52,0.00,,,0.00,203.000000,,2013-03-12 02:32:00,
2013-03-11 18:42:00,36.0,20.0,-100.00,West,266,2.0,7.0,52,0.00,,,0.00,203.000000,,2013-03-12 02:42:00,
2013-03-11 18:51:00,36.0,20.0,-100.00,West,266,2.0,7.0,52,0.00,,,0.00,203.000000,,2013-03-12 02:51:00,
2013-03-11 19:22:00,32.0,18.0,-100.00,NNW,331,1.0,10.0,55,0.00,,,0.00,54.000000,,2013-03-12 03:22:00,
2013-03-11 19:32:00,32.0,18.0,-100.00,NNW,331,1.0,10.0,55,0.00,,,0.00,54.000000,,2013-03-12 03:32:00,
2013-03-11 19:42:00,32.0,18.0,-100.00,NNW,331,1.0,10.0,55,0.00,,,0.00,54.000000,,2013-03-12 03:42:00,
2013-03-11 19:51:00,32.0,18.0,-100.00,NNW,331,1.0,10.0,55,0.00,,,0.00,54.000000,,2013-03-12 03:51:00,
2013-03-11 20:22:00,29.0,19.0,-100.00,North,5,2.0,6.0,66,0.00,,,-99.99,15.000000,,2013-03-12 04:22:00,
2013-03-11 20:32:00,29.0,19.0,-100.00,North,5,2.0,6.0,66,0.00,,,-99.99,15.000000,,2013-03-12 04:32:00,
2013-03-11 20:42:00,29.0,19.0,-100.00,North,5,2.0,6.0,66,0.00,,,-99.99,15.000000,,2013-03-12 04:42:00,
2013-03-11 20:52:00,29.0,19.0,-100.00,North,5,2.0,6.0,66,0.00,,,-99.99,15.000000,,2013-03-12 04:52:00,
2013-03-11 21:22:00,26.0,18.0,-100.00,North,1,0.0,6.0,70,0.00,,,0.00,1.000000,,2013-03-12 05:22:00,
2013-03-11 21:32:00,26.0,18.0,-100.00,North,1,0.0,6.0,70,0.00,,,0.00,1.000000,,2013-03-12 05:32:00,
2013-03-11 21:42:00,26.0,18.0,-100.00,North,1,0.0,6.0,70,0.00,,,0.00,1.000000,,2013-03-12 05:42:00,
2013-03-11 21:52:00,26.0,18.0,-100.00,North,1,0.0,6.0,70,0.00,,,0.00,1.000000,,2013-03-12 05:52:00,
2013-03-11 22:22:00,24.0,18.0,-100.00,NE,54,0.0,1.0,77,0.00,,,0.00,0.000000,,2013-03-12 06:22:00,
2013-03-11 22:32:00,24.0,18.0,-100.00,NE,54,0.0,1.0,77,0.00,,,0.00,0.000000,,2013-03-12 06:32:00,
2013-03-11 22:42:00,24.0,18.0,-100.00,NE,54,0.0,1.0,77,0.00,,,0.00,0.000000,,2013-03-12 06:42:00,
2013-03-11 22:52:00,24.0,18.0,-100.00,NE,54,0.0,1.0,77,0.00,,,0.00,0.000000,,2013-03-12 06:52:00,
2013-03-11 23:21:00,23.0,18.0,-100.00,NNW,337,1.0,3.0,80,0.00,,,0.00,0.000000,,2013-03-12 07:21:00,
2013-03-11 23:32:00,23.0,18.0,-100.00,NNW,337,1.0,3.0,80,0.00,,,0.00,0.000000,,2013-03-12 07:32:00,
2013-03-11 23:42:00,23.0,18.0,-100.00,NNW,337,1.0,3.0,80,0.00,,,0.00,0.000000,,2013-03-12 07:42:00,
2013-03-11 23:52:00,23.0,18.0,-100.00,NNW,337,1.0,3.0,80,0.00,,,0.00,0.000000,,2013-03-12 07:52:00,